sensor_id;sensor_type;location;lat;lon;timestamp;pressure;altitude;pressure_sealevel;temperature;humidity
37020;BME280;22932;52.442;16.896;2022-12-10T00:01:49;99735.89;;;-0.39;100.00
37020;BME280;22932;52.442;16.896;2022-12-10T00:04:20;99737.85;;;-0.39;100.00
37020;BME280;22932;52.442;16.896;2022-12-10T00:06:50;99735.08;;;-0.40;99.98
37020;BME280;22932;52.442;16.896;2022-12-10T00:09:20;99736.35;;;-0.41;99.98
37020;BME280;22932;52.442;16.896;2022-12-10T00:11:50;99739.63;;;-0.39;100.00
37020;BME280;22932;52.442;16.896;2022-12-10T00:14:19;99736.78;;;-0.39;100.00
37020;BME280;22932;52.442;16.896;2022-12-10T00:16:49;99738.02;;;-0.39;100.00
37020;BME280;22932;52.442;16.896;2022-12-10T00:19:19;99740.78;;;-0.38;100.00
37020;BME280;22932;52.442;16.896;2022-12-10T00:21:48;99736.20;;;-0.38;100.00
37020;BME280;22932;52.442;16.896;2022-12-10T00:24:18;99738.85;;;-0.38;100.00
37020;BME280;22932;52.442;16.896;2022-12-10T00:26:47;99737.65;;;-0.39;100.00
37020;BME280;22932;52.442;16.896;2022-12-10T00:29:17;99738.87;;;-0.38;100.00
37020;BME280;22932;52.442;16.896;2022-12-10T00:31:46;99738.02;;;-0.39;99.98
37020;BME280;22932;52.442;16.896;2022-12-10T00:34:16;99740.34;;;-0.39;100.00
37020;BME280;22932;52.442;16.896;2022-12-10T00:36:47;99739.45;;;-0.39;100.00
37020;BME280;22932;52.442;16.896;2022-12-10T00:39:19;99739.83;;;-0.40;100.00
37020;BME280;22932;52.442;16.896;2022-12-10T00:41:49;99738.95;;;-0.40;100.00
37020;BME280;22932;52.442;16.896;2022-12-10T00:44:19;99738.90;;;-0.39;100.00
37020;BME280;22932;52.442;16.896;2022-12-10T00:46:48;99737.66;;;-0.39;99.99
37020;BME280;22932;52.442;16.896;2022-12-10T00:49:18;99743.86;;;-0.39;99.97
37020;BME280;22932;52.442;16.896;2022-12-10T00:51:51;99743.48;;;-0.39;100.00
37020;BME280;22932;52.442;16.896;2022-12-10T00:54:20;99749.27;;;-0.38;100.00
37020;BME280;22932;52.442;16.896;2022-12-10T00:56:50;99751.36;;;-0.37;99.95
37020;BME280;22932;52.442;16.896;2022-12-10T00:59:19;99754.95;;;-0.38;99.95
37020;BME280;22932;52.442;16.896;2022-12-10T01:01:49;99748.90;;;-0.40;99.96
37020;BME280;22932;52.442;16.896;2022-12-10T01:04:19;99749.32;;;-0.41;99.96
37020;BME280;22932;52.442;16.896;2022-12-10T01:06:49;99748.42;;;-0.41;99.99
37020;BME280;22932;52.442;16.896;2022-12-10T01:09:21;99748.92;;;-0.41;99.98
37020;BME280;22932;52.442;16.896;2022-12-10T01:11:51;99750.03;;;-0.42;100.00
37020;BME280;22932;52.442;16.896;2022-12-10T01:14:20;99749.30;;;-0.41;100.00
37020;BME280;22932;52.442;16.896;2022-12-10T01:16:52;99748.66;;;-0.43;99.96
37020;BME280;22932;52.442;16.896;2022-12-10T01:19:22;99742.11;;;-0.46;100.00
37020;BME280;22932;52.442;16.896;2022-12-10T01:21:53;99746.69;;;-0.46;100.00
37020;BME280;22932;52.442;16.896;2022-12-10T01:24:23;99750.52;;;-0.44;99.99
37020;BME280;22932;52.442;16.896;2022-12-10T01:26:53;99747.77;;;-0.46;99.95
37020;BME280;22932;52.442;16.896;2022-12-10T01:29:24;99753.58;;;-0.45;99.99
37020;BME280;22932;52.442;16.896;2022-12-10T01:31:56;99751.30;;;-0.46;99.99
37020;BME280;22932;52.442;16.896;2022-12-10T01:34:26;99757.77;;;-0.47;99.97
37020;BME280;22932;52.442;16.896;2022-12-10T01:36:56;99759.66;;;-0.47;100.00
37020;BME280;22932;52.442;16.896;2022-12-10T01:39:25;99759.81;;;-0.46;100.00
37020;BME280;22932;52.442;16.896;2022-12-10T01:41:57;99759.13;;;-0.43;100.00
37020;BME280;22932;52.442;16.896;2022-12-10T01:47:31;99757.89;;;-0.43;99.83
37020;BME280;22932;52.442;16.896;2022-12-10T01:50:00;99757.16;;;-0.46;99.88
37020;BME280;22932;52.442;16.896;2022-12-10T01:52:30;99756.95;;;-0.45;99.98
37020;BME280;22932;52.442;16.896;2022-12-10T01:55:00;99757.37;;;-0.43;100.00
37020;BME280;22932;52.442;16.896;2022-12-10T01:57:29;99753.95;;;-0.42;99.92
37020;BME280;22932;52.442;16.896;2022-12-10T02:00:03;99748.67;;;-0.43;99.80
37020;BME280;22932;52.442;16.896;2022-12-10T02:02:41;99746.53;;;-0.42;99.79
37020;BME280;22932;52.442;16.896;2022-12-10T02:05:21;99741.05;;;-0.43;99.79
37020;BME280;22932;52.442;16.896;2022-12-10T02:08:01;99746.42;;;-0.43;99.73
37020;BME280;22932;52.442;16.896;2022-12-10T02:10:54;99748.39;;;-0.48;99.59
37020;BME280;22932;52.442;16.896;2022-12-10T02:13:31;99748.87;;;-0.50;99.58
37020;BME280;22932;52.442;16.896;2022-12-10T02:16:08;99746.55;;;-0.52;99.58
37020;BME280;22932;52.442;16.896;2022-12-10T02:18:48;99748.96;;;-0.55;99.63
37020;BME280;22932;52.442;16.896;2022-12-10T02:21:22;99747.19;;;-0.54;99.73
37020;BME280;22932;52.442;16.896;2022-12-10T02:24:04;99751.63;;;-0.51;99.85
37020;BME280;22932;52.442;16.896;2022-12-10T02:26:40;99743.77;;;-0.50;99.67
37020;BME280;22932;52.442;16.896;2022-12-10T02:29:15;99747.83;;;-0.50;99.57
37020;BME280;22932;52.442;16.896;2022-12-10T02:31:47;99746.95;;;-0.50;99.46
37020;BME280;22932;52.442;16.896;2022-12-10T02:34:20;99750.30;;;-0.53;99.17
37020;BME280;22932;52.442;16.896;2022-12-10T02:36:53;99748.98;;;-0.55;99.20
37020;BME280;22932;52.442;16.896;2022-12-10T02:39:26;99750.52;;;-0.54;99.50
37020;BME280;22932;52.442;16.896;2022-12-10T02:41:59;99747.15;;;-0.53;99.36
37020;BME280;22932;52.442;16.896;2022-12-10T02:44:31;99749.86;;;-0.51;99.49
37020;BME280;22932;52.442;16.896;2022-12-10T02:47:05;99745.94;;;-0.51;99.31
37020;BME280;22932;52.442;16.896;2022-12-10T02:49:36;99744.52;;;-0.51;99.21
37020;BME280;22932;52.442;16.896;2022-12-10T02:52:11;99744.63;;;-0.50;99.30
37020;BME280;22932;52.442;16.896;2022-12-10T02:54:44;99744.29;;;-0.53;98.85
37020;BME280;22932;52.442;16.896;2022-12-10T02:57:21;99742.86;;;-0.56;98.73
37020;BME280;22932;52.442;16.896;2022-12-10T03:00:10;99743.94;;;-0.56;98.92
37020;BME280;22932;52.442;16.896;2022-12-10T03:03:04;99746.98;;;-0.57;98.91
37020;BME280;22932;52.442;16.896;2022-12-10T03:05:42;99746.14;;;-0.58;99.02
37020;BME280;22932;52.442;16.896;2022-12-10T03:08:16;99746.10;;;-0.57;98.82
37020;BME280;22932;52.442;16.896;2022-12-10T03:10:53;99747.48;;;-0.56;99.02
37020;BME280;22932;52.442;16.896;2022-12-10T03:13:29;99746.46;;;-0.57;99.05
37020;BME280;22932;52.442;16.896;2022-12-10T03:16:00;99745.54;;;-0.59;98.86
37020;BME280;22932;52.442;16.896;2022-12-10T03:18:31;99747.45;;;-0.62;98.85
37020;BME280;22932;52.442;16.896;2022-12-10T03:21:05;99752.00;;;-0.64;98.78
37020;BME280;22932;52.442;16.896;2022-12-10T03:23:38;99752.70;;;-0.64;98.91
37020;BME280;22932;52.442;16.896;2022-12-10T03:26:11;99753.02;;;-0.66;98.61
37020;BME280;22932;52.442;16.896;2022-12-10T03:28:39;99759.36;;;-0.70;98.50
37020;BME280;22932;52.442;16.896;2022-12-10T03:31:13;99758.98;;;-0.72;98.54
37020;BME280;22932;52.442;16.896;2022-12-10T03:33:44;99761.73;;;-0.71;98.91
37020;BME280;22932;52.442;16.896;2022-12-10T03:36:15;99764.63;;;-0.69;98.62
37020;BME280;22932;52.442;16.896;2022-12-10T03:38:46;99766.31;;;-0.71;98.42
37020;BME280;22932;52.442;16.896;2022-12-10T03:41:15;99771.05;;;-0.70;98.33
37020;BME280;22932;52.442;16.896;2022-12-10T03:43:56;99775.40;;;-0.72;97.79
37020;BME280;22932;52.442;16.896;2022-12-10T03:46:28;99774.73;;;-0.73;98.03
37020;BME280;22932;52.442;16.896;2022-12-10T03:48:59;99774.37;;;-0.73;97.86
37020;BME280;22932;52.442;16.896;2022-12-10T03:51:28;99778.48;;;-0.70;97.66
37020;BME280;22932;52.442;16.896;2022-12-10T03:53:58;99784.38;;;-0.67;97.68
37020;BME280;22932;52.442;16.896;2022-12-10T03:56:27;99787.87;;;-0.67;97.46
37020;BME280;22932;52.442;16.896;2022-12-10T03:58:57;99790.92;;;-0.68;96.94
37020;BME280;22932;52.442;16.896;2022-12-10T04:01:26;99787.70;;;-0.71;96.61
37020;BME280;22932;52.442;16.896;2022-12-10T04:03:56;99783.67;;;-0.72;96.58
37020;BME280;22932;52.442;16.896;2022-12-10T04:06:26;99783.40;;;-0.73;96.53
37020;BME280;22932;52.442;16.896;2022-12-10T04:08:55;99783.50;;;-0.71;96.88
37020;BME280;22932;52.442;16.896;2022-12-10T04:11:25;99786.44;;;-0.67;97.02
37020;BME280;22932;52.442;16.896;2022-12-10T04:13:55;99784.48;;;-0.66;96.36
37020;BME280;22932;52.442;16.896;2022-12-10T04:16:42;99782.98;;;-0.68;95.84
37020;BME280;22932;52.442;16.896;2022-12-10T04:19:13;99779.90;;;-0.70;95.91
37020;BME280;22932;52.442;16.896;2022-12-10T04:21:44;99776.41;;;-0.71;95.92
37020;BME280;22932;52.442;16.896;2022-12-10T04:24:33;99775.75;;;-0.72;95.83
37020;BME280;22932;52.442;16.896;2022-12-10T04:27:23;99771.52;;;-0.72;95.73
37020;BME280;22932;52.442;16.896;2022-12-10T04:29:54;99770.30;;;-0.76;95.26
37020;BME280;22932;52.442;16.896;2022-12-10T04:32:25;99768.77;;;-0.80;95.28
37020;BME280;22932;52.442;16.896;2022-12-10T04:34:55;99772.99;;;-0.83;95.24
37020;BME280;22932;52.442;16.896;2022-12-10T04:37:26;99775.80;;;-0.86;95.29
37020;BME280;22932;52.442;16.896;2022-12-10T04:39:55;99779.60;;;-0.87;95.25
37020;BME280;22932;52.442;16.896;2022-12-10T04:42:25;99780.92;;;-0.86;95.63
37020;BME280;22932;52.442;16.896;2022-12-10T04:44:55;99778.95;;;-0.85;95.65
37020;BME280;22932;52.442;16.896;2022-12-10T04:47:24;99782.27;;;-0.84;95.59
37020;BME280;22932;52.442;16.896;2022-12-10T04:49:54;99781.21;;;-0.81;95.76
37020;BME280;22932;52.442;16.896;2022-12-10T04:52:23;99788.55;;;-0.76;96.12
37020;BME280;22932;52.442;16.896;2022-12-10T04:54:53;99790.43;;;-0.72;96.09
37020;BME280;22932;52.442;16.896;2022-12-10T04:57:22;99792.13;;;-0.67;96.20
37020;BME280;22932;52.442;16.896;2022-12-10T04:59:52;99789.73;;;-0.62;96.10
37020;BME280;22932;52.442;16.896;2022-12-10T05:02:22;99786.81;;;-0.61;95.73
37020;BME280;22932;52.442;16.896;2022-12-10T05:04:51;99784.01;;;-0.58;95.71
37020;BME280;22932;52.442;16.896;2022-12-10T05:07:21;99783.55;;;-0.60;95.13
37020;BME280;22932;52.442;16.896;2022-12-10T05:09:50;99785.19;;;-0.63;94.79
37020;BME280;22932;52.442;16.896;2022-12-10T05:12:20;99782.84;;;-0.66;94.88
37020;BME280;22932;52.442;16.896;2022-12-10T05:14:49;99786.72;;;-0.69;94.70
37020;BME280;22932;52.442;16.896;2022-12-10T05:17:19;99786.26;;;-0.70;95.00
37020;BME280;22932;52.442;16.896;2022-12-10T05:19:48;99788.30;;;-0.65;95.51
37020;BME280;22932;52.442;16.896;2022-12-10T05:22:18;99787.30;;;-0.63;95.33
37020;BME280;22932;52.442;16.896;2022-12-10T05:25:06;99790.37;;;-0.64;95.09
37020;BME280;22932;52.442;16.896;2022-12-10T05:27:34;99791.90;;;-0.66;94.93
37020;BME280;22932;52.442;16.896;2022-12-10T05:30:05;99796.13;;;-0.69;94.98
37020;BME280;22932;52.442;16.896;2022-12-10T05:32:36;99797.78;;;-0.71;95.08
37020;BME280;22932;52.442;16.896;2022-12-10T05:35:08;99798.68;;;-0.67;95.50
37020;BME280;22932;52.442;16.896;2022-12-10T05:37:38;99796.81;;;-0.63;95.87
37020;BME280;22932;52.442;16.896;2022-12-10T05:40:10;99802.38;;;-0.58;95.79
37020;BME280;22932;52.442;16.896;2022-12-10T05:42:39;99797.83;;;-0.59;95.30
37020;BME280;22932;52.442;16.896;2022-12-10T05:45:10;99801.22;;;-0.59;95.32
37020;BME280;22932;52.442;16.896;2022-12-10T05:47:40;99804.88;;;-0.61;95.19
37020;BME280;22932;52.442;16.896;2022-12-10T05:50:10;99800.78;;;-0.64;95.26
37020;BME280;22932;52.442;16.896;2022-12-10T05:52:39;99804.70;;;-0.61;95.48
37020;BME280;22932;52.442;16.896;2022-12-10T05:55:10;99804.27;;;-0.60;95.48
37020;BME280;22932;52.442;16.896;2022-12-10T05:57:39;99802.33;;;-0.56;95.65
37020;BME280;22932;52.442;16.896;2022-12-10T06:00:11;99804.58;;;-0.53;95.72
37020;BME280;22932;52.442;16.896;2022-12-10T06:02:43;99801.35;;;-0.49;95.82
37020;BME280;22932;52.442;16.896;2022-12-10T06:05:13;99803.10;;;-0.49;95.43
37020;BME280;22932;52.442;16.896;2022-12-10T06:07:42;99806.55;;;-0.50;95.29
37020;BME280;22932;52.442;16.896;2022-12-10T06:10:12;99806.14;;;-0.52;95.15
37020;BME280;22932;52.442;16.896;2022-12-10T06:12:42;99805.55;;;-0.54;95.20
37020;BME280;22932;52.442;16.896;2022-12-10T06:15:11;99811.98;;;-0.52;95.59
37020;BME280;22932;52.442;16.896;2022-12-10T06:17:41;99810.73;;;-0.49;95.68
37020;BME280;22932;52.442;16.896;2022-12-10T06:20:12;99813.23;;;-0.50;95.45
37020;BME280;22932;52.442;16.896;2022-12-10T06:22:41;99813.33;;;-0.51;95.37
37020;BME280;22932;52.442;16.896;2022-12-10T06:25:11;99809.77;;;-0.51;95.44
37020;BME280;22932;52.442;16.896;2022-12-10T06:27:41;99812.46;;;-0.48;95.63
37020;BME280;22932;52.442;16.896;2022-12-10T06:30:12;99812.69;;;-0.46;95.54
37020;BME280;22932;52.442;16.896;2022-12-10T06:32:39;99814.09;;;-0.46;95.60
37020;BME280;22932;52.442;16.896;2022-12-10T06:35:11;99813.20;;;-0.45;95.32
37020;BME280;22932;52.442;16.896;2022-12-10T06:37:41;99810.76;;;-0.46;95.34
37020;BME280;22932;52.442;16.896;2022-12-10T06:40:11;99814.77;;;-0.49;95.18
37020;BME280;22932;52.442;16.896;2022-12-10T06:42:41;99811.83;;;-0.53;95.12
37020;BME280;22932;52.442;16.896;2022-12-10T06:45:11;99810.95;;;-0.56;95.01
37020;BME280;22932;52.442;16.896;2022-12-10T06:47:40;99809.30;;;-0.61;95.18
37020;BME280;22932;52.442;16.896;2022-12-10T06:50:10;99812.42;;;-0.66;95.17
37020;BME280;22932;52.442;16.896;2022-12-10T06:52:40;99813.27;;;-0.69;95.52
37020;BME280;22932;52.442;16.896;2022-12-10T06:55:09;99808.04;;;-0.67;95.95
37020;BME280;22932;52.442;16.896;2022-12-10T06:57:39;99810.55;;;-0.65;95.98
37020;BME280;22932;52.442;16.896;2022-12-10T07:00:10;99810.83;;;-0.63;96.23
37020;BME280;22932;52.442;16.896;2022-12-10T07:02:40;99809.00;;;-0.59;96.27
37020;BME280;22932;52.442;16.896;2022-12-10T07:05:09;99810.81;;;-0.57;96.26
37020;BME280;22932;52.442;16.896;2022-12-10T07:07:39;99813.23;;;-0.56;96.06
37020;BME280;22932;52.442;16.896;2022-12-10T07:10:09;99814.08;;;-0.55;96.17
37020;BME280;22932;52.442;16.896;2022-12-10T07:12:38;99814.92;;;-0.54;96.03
37020;BME280;22932;52.442;16.896;2022-12-10T07:15:09;99818.59;;;-0.53;95.99
37020;BME280;22932;52.442;16.896;2022-12-10T07:17:39;99816.14;;;-0.54;95.84
37020;BME280;22932;52.442;16.896;2022-12-10T07:20:10;99813.59;;;-0.53;95.94
37020;BME280;22932;52.442;16.896;2022-12-10T07:22:40;99814.99;;;-0.52;95.94
37020;BME280;22932;52.442;16.896;2022-12-10T07:25:10;99811.88;;;-0.53;95.65
37020;BME280;22932;52.442;16.896;2022-12-10T07:27:40;99809.77;;;-0.54;95.74
37020;BME280;22932;52.442;16.896;2022-12-10T07:30:11;99807.70;;;-0.55;95.64
37020;BME280;22932;52.442;16.896;2022-12-10T07:32:41;99809.77;;;-0.57;95.43
37020;BME280;22932;52.442;16.896;2022-12-10T07:35:10;99809.95;;;-0.60;95.43
37020;BME280;22932;52.442;16.896;2022-12-10T07:37:40;99809.57;;;-0.60;95.67
37020;BME280;22932;52.442;16.896;2022-12-10T07:40:11;99809.84;;;-0.58;95.78
37020;BME280;22932;52.442;16.896;2022-12-10T07:42:41;99813.05;;;-0.59;95.71
37020;BME280;22932;52.442;16.896;2022-12-10T07:45:11;99813.29;;;-0.60;95.64
37020;BME280;22932;52.442;16.896;2022-12-10T07:47:41;99813.50;;;-0.57;95.91
37020;BME280;22932;52.442;16.896;2022-12-10T07:50:10;99806.15;;;-0.56;95.85
37020;BME280;22932;52.442;16.896;2022-12-10T07:52:40;99799.08;;;-0.56;95.65
37020;BME280;22932;52.442;16.896;2022-12-10T07:55:09;99800.67;;;-0.56;95.55
37020;BME280;22932;52.442;16.896;2022-12-10T07:57:39;99809.90;;;-0.56;95.41
37020;BME280;22932;52.442;16.896;2022-12-10T08:00:12;99812.64;;;-0.58;95.32
37020;BME280;22932;52.442;16.896;2022-12-10T08:02:42;99817.42;;;-0.58;95.47
37020;BME280;22932;52.442;16.896;2022-12-10T08:05:11;99819.38;;;-0.58;95.48
37020;BME280;22932;52.442;16.896;2022-12-10T08:07:41;99827.30;;;-0.57;95.47
37020;BME280;22932;52.442;16.896;2022-12-10T08:10:10;99829.05;;;-0.57;95.56
37020;BME280;22932;52.442;16.896;2022-12-10T08:12:40;99830.90;;;-0.55;95.67
37020;BME280;22932;52.442;16.896;2022-12-10T08:15:10;99830.94;;;-0.53;95.66
37020;BME280;22932;52.442;16.896;2022-12-10T08:17:40;99831.77;;;-0.52;95.37
37020;BME280;22932;52.442;16.896;2022-12-10T08:20:10;99831.98;;;-0.50;95.45
37020;BME280;22932;52.442;16.896;2022-12-10T08:22:38;99838.68;;;-0.46;95.62
37020;BME280;22932;52.442;16.896;2022-12-10T08:25:09;99836.48;;;-0.41;95.63
37020;BME280;22932;52.442;16.896;2022-12-10T08:27:37;99834.73;;;-0.38;95.47
37020;BME280;22932;52.442;16.896;2022-12-10T08:30:09;99836.57;;;-0.36;95.23
37020;BME280;22932;52.442;16.896;2022-12-10T08:32:38;99838.25;;;-0.35;95.02
37020;BME280;22932;52.442;16.896;2022-12-10T08:35:08;99834.78;;;-0.36;94.67
37020;BME280;22932;52.442;16.896;2022-12-10T08:37:42;99833.26;;;-0.37;94.54
37020;BME280;22932;52.442;16.896;2022-12-10T08:40:12;99834.71;;;-0.41;94.21
37020;BME280;22932;52.442;16.896;2022-12-10T08:42:40;99835.59;;;-0.44;94.27
37020;BME280;22932;52.442;16.896;2022-12-10T08:45:11;99836.22;;;-0.46;94.41
37020;BME280;22932;52.442;16.896;2022-12-10T08:47:40;99840.23;;;-0.45;94.62
37020;BME280;22932;52.442;16.896;2022-12-10T08:50:10;99842.64;;;-0.43;94.64
37020;BME280;22932;52.442;16.896;2022-12-10T08:52:40;99842.95;;;-0.43;94.58
37020;BME280;22932;52.442;16.896;2022-12-10T08:55:10;99849.19;;;-0.44;94.22
37020;BME280;22932;52.442;16.896;2022-12-10T08:57:40;99848.52;;;-0.48;93.93
37020;BME280;22932;52.442;16.896;2022-12-10T09:00:11;99852.90;;;-0.50;93.77
37020;BME280;22932;52.442;16.896;2022-12-10T09:02:41;99850.91;;;-0.53;93.61
37020;BME280;22932;52.442;16.896;2022-12-10T09:05:11;99853.13;;;-0.55;93.82
37020;BME280;22932;52.442;16.896;2022-12-10T09:07:41;99853.63;;;-0.54;94.09
37020;BME280;22932;52.442;16.896;2022-12-10T09:10:12;99857.66;;;-0.53;93.86
37020;BME280;22932;52.442;16.896;2022-12-10T09:12:41;99859.11;;;-0.54;93.78
37020;BME280;22932;52.442;16.896;2022-12-10T09:15:11;99862.13;;;-0.54;93.80
37020;BME280;22932;52.442;16.896;2022-12-10T09:17:41;99863.47;;;-0.53;93.43
37020;BME280;22932;52.442;16.896;2022-12-10T09:20:11;99861.33;;;-0.53;93.36
37020;BME280;22932;52.442;16.896;2022-12-10T09:22:40;99861.88;;;-0.53;93.07
37020;BME280;22932;52.442;16.896;2022-12-10T09:25:10;99860.98;;;-0.52;93.37
37020;BME280;22932;52.442;16.896;2022-12-10T09:27:43;99857.16;;;-0.51;93.11
37020;BME280;22932;52.442;16.896;2022-12-10T09:30:14;99853.80;;;-0.50;92.94
37020;BME280;22932;52.442;16.896;2022-12-10T09:32:44;99849.98;;;-0.49;92.81
37020;BME280;22932;52.442;16.896;2022-12-10T09:35:14;99848.68;;;-0.47;92.93
37020;BME280;22932;52.442;16.896;2022-12-10T09:37:43;99844.14;;;-0.45;92.56
37020;BME280;22932;52.442;16.896;2022-12-10T09:40:16;99842.00;;;-0.45;92.41
37020;BME280;22932;52.442;16.896;2022-12-10T09:42:51;99843.21;;;-0.41;92.74
37020;BME280;22932;52.442;16.896;2022-12-10T09:45:32;99840.88;;;-0.37;92.49
37020;BME280;22932;52.442;16.896;2022-12-10T09:48:11;99836.99;;;-0.37;92.02
37020;BME280;22932;52.442;16.896;2022-12-10T09:50:51;99836.44;;;-0.37;91.59
37020;BME280;22932;52.442;16.896;2022-12-10T09:53:24;99837.14;;;-0.40;91.20
37020;BME280;22932;52.442;16.896;2022-12-10T09:55:56;99831.74;;;-0.41;91.41
37020;BME280;22932;52.442;16.896;2022-12-10T09:58:28;99831.13;;;-0.40;91.56
37020;BME280;22932;52.442;16.896;2022-12-10T10:01:00;99830.16;;;-0.39;91.69
37020;BME280;22932;52.442;16.896;2022-12-10T10:03:34;99826.85;;;-0.37;91.64
37020;BME280;22932;52.442;16.896;2022-12-10T10:06:05;99826.56;;;-0.38;90.89
37020;BME280;22932;52.442;16.896;2022-12-10T10:08:38;99827.23;;;-0.40;90.54
37020;BME280;22932;52.442;16.896;2022-12-10T10:11:14;99826.63;;;-0.42;90.86
37020;BME280;22932;52.442;16.896;2022-12-10T10:13:46;99829.80;;;-0.41;90.67
37020;BME280;22932;52.442;16.896;2022-12-10T10:16:25;99827.33;;;-0.42;90.96
37020;BME280;22932;52.442;16.896;2022-12-10T10:18:58;99828.77;;;-0.39;91.17
37020;BME280;22932;52.442;16.896;2022-12-10T10:21:32;99829.76;;;-0.37;90.81
37020;BME280;22932;52.442;16.896;2022-12-10T10:24:04;99833.65;;;-0.38;90.82
37020;BME280;22932;52.442;16.896;2022-12-10T10:26:34;99830.70;;;-0.35;90.99
37020;BME280;22932;52.442;16.896;2022-12-10T10:29:06;99835.64;;;-0.32;91.14
37020;BME280;22932;52.442;16.896;2022-12-10T10:31:40;99836.25;;;-0.30;90.91
37020;BME280;22932;52.442;16.896;2022-12-10T10:34:16;99837.29;;;-0.30;90.91
37020;BME280;22932;52.442;16.896;2022-12-10T10:36:47;99834.18;;;-0.28;91.05
37020;BME280;22932;52.442;16.896;2022-12-10T10:39:28;99832.80;;;-0.29;90.39
37020;BME280;22932;52.442;16.896;2022-12-10T10:41:59;99832.65;;;-0.29;90.32
37020;BME280;22932;52.442;16.896;2022-12-10T10:44:36;99830.27;;;-0.31;90.05
37020;BME280;22932;52.442;16.896;2022-12-10T10:47:25;99828.13;;;-0.34;90.11
37020;BME280;22932;52.442;16.896;2022-12-10T10:49:55;99825.73;;;-0.35;90.18
37020;BME280;22932;52.442;16.896;2022-12-10T10:52:26;99821.36;;;-0.36;90.02
37020;BME280;22932;52.442;16.896;2022-12-10T10:54:56;99822.94;;;-0.39;90.01
37020;BME280;22932;52.442;16.896;2022-12-10T10:57:29;99823.65;;;-0.39;90.24
37020;BME280;22932;52.442;16.896;2022-12-10T11:00:06;99815.88;;;-0.39;90.03
37020;BME280;22932;52.442;16.896;2022-12-10T11:02:38;99809.81;;;-0.41;89.99
37020;BME280;22932;52.442;16.896;2022-12-10T11:05:20;99808.44;;;-0.42;89.88
37020;BME280;22932;52.442;16.896;2022-12-10T11:07:59;99809.75;;;-0.44;89.81
37020;BME280;22932;52.442;16.896;2022-12-10T11:10:30;99814.45;;;-0.42;90.23
37020;BME280;22932;52.442;16.896;2022-12-10T11:13:04;99811.48;;;-0.40;90.40
37020;BME280;22932;52.442;16.896;2022-12-10T11:15:36;99811.79;;;-0.39;89.99
37020;BME280;22932;52.442;16.896;2022-12-10T11:18:25;99810.05;;;-0.40;90.20
37020;BME280;22932;52.442;16.896;2022-12-10T11:21:04;99813.35;;;-0.38;90.01
37020;BME280;22932;52.442;16.896;2022-12-10T11:23:39;99810.44;;;-0.40;89.90
37020;BME280;22932;52.442;16.896;2022-12-10T11:26:18;99812.73;;;-0.40;89.87
37020;BME280;22932;52.442;16.896;2022-12-10T11:29:02;99811.11;;;-0.39;90.00
37020;BME280;22932;52.442;16.896;2022-12-10T11:31:46;99809.20;;;-0.40;89.63
37020;BME280;22932;52.442;16.896;2022-12-10T11:34:23;99807.40;;;-0.43;89.53
37020;BME280;22932;52.442;16.896;2022-12-10T11:37:06;99810.17;;;-0.42;89.60
37020;BME280;22932;52.442;16.896;2022-12-10T11:39:59;99808.41;;;-0.42;89.73
37020;BME280;22932;52.442;16.896;2022-12-10T11:42:41;99803.98;;;-0.42;89.28
37020;BME280;22932;52.442;16.896;2022-12-10T11:45:18;99801.02;;;-0.42;89.52
37020;BME280;22932;52.442;16.896;2022-12-10T11:48:03;99804.77;;;-0.40;89.79
37020;BME280;22932;52.442;16.896;2022-12-10T11:50:42;99803.30;;;-0.36;90.01
37020;BME280;22932;52.442;16.896;2022-12-10T11:53:37;99803.27;;;-0.32;90.14
37020;BME280;22932;52.442;16.896;2022-12-10T11:56:16;99795.11;;;-0.29;90.10
37020;BME280;22932;52.442;16.896;2022-12-10T11:59:02;99796.44;;;-0.27;90.04
37020;BME280;22932;52.442;16.896;2022-12-10T12:01:48;99796.70;;;-0.26;89.93
37020;BME280;22932;52.442;16.896;2022-12-10T12:04:30;99795.71;;;-0.27;89.52
37020;BME280;22932;52.442;16.896;2022-12-10T12:07:21;99793.20;;;-0.30;89.40
37020;BME280;22932;52.442;16.896;2022-12-10T12:10:04;99788.77;;;-0.32;89.17
37020;BME280;22932;52.442;16.896;2022-12-10T12:12:44;99790.08;;;-0.34;89.23
37020;BME280;22932;52.442;16.896;2022-12-10T12:15:22;99792.31;;;-0.36;89.43
37020;BME280;22932;52.442;16.896;2022-12-10T12:17:58;99788.64;;;-0.36;89.37
37020;BME280;22932;52.442;16.896;2022-12-10T12:20:32;99793.70;;;-0.38;89.03
37020;BME280;22932;52.442;16.896;2022-12-10T12:23:10;99797.17;;;-0.40;89.06
37020;BME280;22932;52.442;16.896;2022-12-10T12:25:46;99800.69;;;-0.43;88.95
37020;BME280;22932;52.442;16.896;2022-12-10T12:28:21;99800.50;;;-0.46;88.84
37020;BME280;22932;52.442;16.896;2022-12-10T12:30:57;99807.42;;;-0.47;89.33
37020;BME280;22932;52.442;16.896;2022-12-10T12:33:32;99805.20;;;-0.48;89.21
37020;BME280;22932;52.442;16.896;2022-12-10T12:36:08;99812.11;;;-0.48;89.13
37020;BME280;22932;52.442;16.896;2022-12-10T12:38:43;99810.38;;;-0.49;89.46
37020;BME280;22932;52.442;16.896;2022-12-10T12:41:17;99813.59;;;-0.46;89.71
37020;BME280;22932;52.442;16.896;2022-12-10T12:43:55;99818.58;;;-0.43;89.61
37020;BME280;22932;52.442;16.896;2022-12-10T12:46:32;99818.25;;;-0.40;89.68
37020;BME280;22932;52.442;16.896;2022-12-10T12:49:12;99818.83;;;-0.38;89.55
37020;BME280;22932;52.442;16.896;2022-12-10T12:51:48;99822.44;;;-0.37;89.63
37020;BME280;22932;52.442;16.896;2022-12-10T12:54:20;99822.29;;;-0.34;89.52
37020;BME280;22932;52.442;16.896;2022-12-10T12:56:58;99820.55;;;-0.31;89.69
37020;BME280;22932;52.442;16.896;2022-12-10T12:59:54;99819.80;;;-0.30;89.29
37020;BME280;22932;52.442;16.896;2022-12-10T13:02:44;99817.86;;;-0.34;88.84
37020;BME280;22932;52.442;16.896;2022-12-10T13:05:18;99818.39;;;-0.37;88.65
37020;BME280;22932;52.442;16.896;2022-12-10T13:10:56;99819.48;;;-0.38;89.08
37020;BME280;22932;52.442;16.896;2022-12-10T13:13:32;99821.18;;;-0.39;88.48
37020;BME280;22932;52.442;16.896;2022-12-10T13:19:31;99818.61;;;-0.37;89.22
37020;BME280;22932;52.442;16.896;2022-12-10T13:22:09;99820.84;;;-0.36;89.07
37020;BME280;22932;52.442;16.896;2022-12-10T13:24:59;99821.70;;;-0.36;88.89
37020;BME280;22932;52.442;16.896;2022-12-10T13:27:32;99818.45;;;-0.38;88.70
37020;BME280;22932;52.442;16.896;2022-12-10T13:30:30;99823.46;;;-0.39;88.57
